Santa Cruz de Bezana, Spain
Current Conditions -  °F | °C
As of 4:00 PM on Saturday 20 Dec 2014 (Local Time) from LEXJ Reporting Station
Drizzle Drizzle  
Wind Chill: 55°   Ceiling: 700
Heat Index: 55°   Visibility: 4mi
Dew Point: 54°   Wind: 6mph
Humidity: 94%   Direction: 270°W
Pressure: 30.53"   Gusts: NA
Location:  43.44°N, 3.9°W
Report Text: LEXJ 201500Z 27005KT 230V290 7000 -DZ BKN007 BKN02613/12 Q1034
Loading
Personal Weather Stations






























Interactive Weather Map New forecast layout! Learn more

10-Day Weather Forecast

Advertisements
Track Severe Weather on mobile